createdAt,value
2022-10-13T00:00:36.127Z,100696.38
2022-10-13T00:03:24.586Z,100697.50
2022-10-13T00:06:13.957Z,100690.06
2022-10-13T00:09:02.395Z,100687.13
2022-10-13T00:11:50.851Z,100679.63
2022-10-13T00:14:40.677Z,100681.75
2022-10-13T00:17:29.107Z,100687.22
2022-10-13T00:20:17.727Z,100691.22
2022-10-13T00:23:06.299Z,100687.50
2022-10-13T00:25:54.728Z,100689.81
2022-10-13T00:28:43.489Z,100677.25
2022-10-13T00:31:34.715Z,100662.00
2022-10-13T00:34:23.146Z,100679.09
2022-10-13T00:37:11.592Z,100677.44
2022-10-13T00:40:00.008Z,100677.16
2022-10-13T00:42:48.531Z,100679.34
2022-10-13T00:45:36.975Z,100679.91
2022-10-13T00:48:28.863Z,100684.81
2022-10-13T00:51:20.056Z,100689.13
2022-10-13T00:54:10.079Z,100682.59
2022-10-13T00:56:58.709Z,100684.44
2022-10-13T00:59:47.435Z,100669.84
2022-10-13T01:02:37.785Z,100674.47
2022-10-13T01:05:27.595Z,100673.38
2022-10-13T01:08:16.175Z,100687.88
2022-10-13T01:11:16.867Z,100676.50
2022-10-13T01:14:12.700Z,100672.53
2022-10-13T01:17:07.434Z,100673.94
2022-10-13T01:20:23.676Z,100666.47
2022-10-13T01:23:24.296Z,100664.31
2022-10-13T01:26:44.180Z,100665.06
2022-10-13T01:30:10.775Z,100659.69
2022-10-13T01:33:07.228Z,100662.94
2022-10-13T01:36:05.141Z,100660.53
2022-10-13T01:38:56.336Z,100663.84
2022-10-13T01:41:47.782Z,100662.75
2022-10-13T01:44:39.364Z,100661.72
2022-10-13T01:47:32.060Z,100660.63
2022-10-13T01:50:20.589Z,100637.72
2022-10-13T01:53:09.860Z,100663.97
2022-10-13T01:55:59.940Z,100662.28
2022-10-13T01:58:48.981Z,100661.16
2022-10-13T02:01:47.493Z,100663.09
2022-10-13T02:04:46.232Z,100666.09
2022-10-13T02:07:39.215Z,100667.38
2022-10-13T02:10:30.290Z,100670.06
2022-10-13T02:13:21.021Z,100668.03
2022-10-13T02:16:09.690Z,100662.38
2022-10-13T02:18:59.189Z,100664.97
2022-10-13T02:21:49.750Z,100660.53
2022-10-13T02:24:38.310Z,100653.44
2022-10-13T02:27:27.372Z,100650.56
2022-10-13T02:30:22.601Z,100603.72
2022-10-13T02:33:11.233Z,100653.31
2022-10-13T02:35:59.861Z,100660.78
2022-10-13T02:38:49.987Z,100660.25
2022-10-13T02:41:38.438Z,100651.66
2022-10-13T02:44:26.833Z,100649.06
2022-10-13T02:47:15.251Z,100644.41
2022-10-13T02:50:03.900Z,100601.69
2022-10-13T02:52:52.335Z,100627.69
2022-10-13T02:55:42.433Z,100628.00
2022-10-13T02:58:30.863Z,100621.97
2022-10-13T03:01:19.258Z,100617.28
2022-10-13T03:04:07.785Z,100618.00
2022-10-13T03:06:56.225Z,100616.59
2022-10-13T03:09:44.728Z,100612.72
2022-10-13T03:12:34.674Z,100599.75
2022-10-13T03:15:23.546Z,100610.22
2022-10-13T03:18:12.106Z,100613.00
2022-10-13T03:21:02.128Z,100625.28
2022-10-13T03:23:50.549Z,100630.81
2022-10-13T03:26:38.981Z,100620.94
2022-10-13T03:29:28.791Z,100627.69
2022-10-13T03:32:17.745Z,100621.38
2022-10-13T03:35:06.887Z,100623.81
2022-10-13T03:37:55.423Z,100618.25
2022-10-13T03:40:43.999Z,100603.47
2022-10-13T03:43:32.407Z,100607.47
2022-10-13T03:46:22.184Z,100608.34
2022-10-13T03:49:11.242Z,100608.53
2022-10-13T03:51:59.687Z,100612.06
2022-10-13T03:54:48.152Z,100606.91
2022-10-13T03:57:36.568Z,100602.94
2022-10-13T04:00:25.027Z,100626.69
2022-10-13T04:03:15.259Z,100623.16
2022-10-13T04:06:04.545Z,100623.34
2022-10-13T04:08:53.304Z,100623.91
2022-10-13T04:11:41.786Z,100630.84
2022-10-13T04:14:30.205Z,100624.09
2022-10-13T04:17:18.631Z,100629.84
2022-10-13T04:20:10.119Z,100629.00
2022-10-13T04:22:58.548Z,100629.84
2022-10-13T04:25:46.965Z,100620.53
2022-10-13T04:28:35.928Z,100623.38
2022-10-13T04:31:25.361Z,100608.06
2022-10-13T04:34:13.791Z,100613.88
2022-10-13T04:37:03.574Z,100612.84
2022-10-13T04:39:52.111Z,100605.84
2022-10-13T04:42:40.530Z,100621.44
2022-10-13T04:45:29.251Z,100629.94
2022-10-13T04:48:17.639Z,100617.34
2022-10-13T04:51:08.946Z,100618.94
2022-10-13T04:54:01.000Z,100610.63
2022-10-13T04:56:49.479Z,100613.56
2022-10-13T04:59:38.106Z,100606.19
2022-10-13T05:02:26.511Z,100600.13
2022-10-13T05:05:14.901Z,100614.13
2022-10-13T05:08:03.332Z,100604.63
2022-10-13T05:10:56.991Z,100616.19
2022-10-13T05:13:45.374Z,100608.34
2022-10-13T05:16:33.792Z,100624.28
2022-10-13T05:19:22.283Z,100615.78
2022-10-13T05:22:10.762Z,100620.34
2022-10-13T05:24:59.176Z,100613.84
2022-10-13T05:27:48.989Z,100600.28
2022-10-13T05:30:37.480Z,100598.59
2022-10-13T05:33:25.889Z,100587.97
2022-10-13T05:36:17.315Z,100585.13
2022-10-13T05:39:07.385Z,100542.75
2022-10-13T05:41:55.820Z,100583.25
2022-10-13T05:44:45.641Z,100573.19
2022-10-13T05:47:39.657Z,100569.28
2022-10-13T05:50:28.108Z,100568.66
2022-10-13T05:53:16.656Z,100569.84
2022-10-13T05:56:07.636Z,100569.56
2022-10-13T05:59:01.015Z,100560.94
2022-10-13T06:01:51.202Z,100553.19
2022-10-13T06:04:41.410Z,100555.97
2022-10-13T06:07:30.145Z,100549.47
2022-10-13T06:10:18.820Z,100553.97
2022-10-13T06:13:07.263Z,100552.94
2022-10-13T06:15:55.677Z,100554.81
2022-10-13T06:18:45.517Z,100561.66
2022-10-13T06:21:35.717Z,100560.00
2022-10-13T06:24:24.140Z,100552.19
2022-10-13T06:27:12.953Z,100556.59
2022-10-13T06:30:01.415Z,100557.06
2022-10-13T06:32:49.839Z,100560.34
2022-10-13T06:35:39.587Z,100567.22
2022-10-13T06:38:28.030Z,100556.41
2022-10-13T06:41:16.629Z,100565.72
2022-10-13T06:44:05.336Z,100575.63
2022-10-13T06:46:53.797Z,100588.09
2022-10-13T06:49:42.188Z,100584.81
2022-10-13T06:52:31.963Z,100576.97
2022-10-13T06:55:20.412Z,100573.84
2022-10-13T06:58:08.829Z,100532.63
2022-10-13T07:00:57.319Z,100571.25
2022-10-13T07:03:45.791Z,100562.06
2022-10-13T07:06:34.235Z,100562.13
2022-10-13T07:09:24.010Z,100566.69
2022-10-13T07:12:14.017Z,100558.22
2022-10-13T07:15:02.469Z,100570.56
2022-10-13T07:17:51.889Z,100556.16
2022-10-13T07:20:40.316Z,100546.06
2022-10-13T07:23:29.825Z,100556.88
2022-10-13T07:26:19.602Z,100564.38
2022-10-13T07:29:08.427Z,100571.69
2022-10-13T07:31:56.846Z,100579.00
2022-10-13T07:34:45.286Z,100567.03
2022-10-13T07:37:33.773Z,100570.00
2022-10-13T07:40:22.172Z,100565.91
2022-10-13T07:43:11.979Z,100557.88
2022-10-13T07:46:00.978Z,100564.91
2022-10-13T07:48:49.569Z,100568.00
2022-10-13T07:51:38.081Z,100571.78
2022-10-13T07:54:27.511Z,100563.09
2022-10-13T07:57:16.325Z,100567.41
2022-10-13T08:00:07.405Z,100535.34
2022-10-13T08:02:55.860Z,100520.84
2022-10-13T08:05:44.337Z,100555.41
2022-10-13T08:08:33.310Z,100555.41
2022-10-13T08:11:21.888Z,100547.53
2022-10-13T08:14:12.752Z,100553.56
2022-10-13T08:17:02.599Z,100548.59
2022-10-13T08:19:52.037Z,100559.34
2022-10-13T08:22:41.309Z,100555.66
2022-10-13T08:25:29.777Z,100525.59
2022-10-13T08:28:20.037Z,100560.16
2022-10-13T08:31:08.797Z,100551.03
2022-10-13T08:33:58.772Z,100557.84
2022-10-13T08:36:47.403Z,100555.16
2022-10-13T08:39:35.880Z,100563.25
2022-10-13T08:42:24.440Z,100523.94
2022-10-13T08:48:30.876Z,100544.38
2022-10-13T08:51:20.977Z,100547.44
2022-10-13T08:54:09.459Z,100549.66
2022-10-13T08:56:58.017Z,100555.63
2022-10-13T08:59:46.641Z,100558.91
2022-10-13T09:02:35.131Z,100551.00
2022-10-13T09:05:31.832Z,100551.56
2022-10-13T09:08:22.287Z,100562.53
2022-10-13T09:11:12.759Z,100569.97
2022-10-13T09:14:04.870Z,100575.38
2022-10-13T09:16:53.681Z,100547.22
2022-10-13T09:19:42.237Z,100574.72
2022-10-13T09:22:32.680Z,100561.84
2022-10-13T09:25:23.476Z,100545.22
2022-10-13T09:28:17.148Z,100558.03
2022-10-13T09:31:11.635Z,100564.69
2022-10-13T09:34:03.768Z,100565.50
2022-10-13T09:37:00.087Z,100568.19
2022-10-13T09:40:01.370Z,100565.25
2022-10-13T09:42:53.308Z,100539.34
2022-10-13T09:45:43.721Z,100540.41
2022-10-13T09:48:34.444Z,100557.16
2022-10-13T09:51:36.484Z,100551.34
2022-10-13T09:54:28.173Z,100552.34
2022-10-13T09:57:26.553Z,100542.94
2022-10-13T10:00:21.375Z,100532.25
2022-10-13T10:03:14.612Z,100547.47
2022-10-13T10:06:04.724Z,100547.91
2022-10-13T10:09:05.074Z,100537.50
2022-10-13T10:11:54.403Z,100537.06
2022-10-13T10:14:42.856Z,100540.72
2022-10-13T10:17:38.346Z,100545.31
2022-10-13T10:20:41.803Z,100545.03
2022-10-13T10:23:38.762Z,100557.47
2022-10-13T10:26:33.017Z,100553.31
2022-10-13T10:29:27.364Z,100531.69
2022-10-13T10:32:34.172Z,100547.53
2022-10-13T10:35:28.294Z,100528.19
2022-10-13T10:38:26.980Z,100539.00
2022-10-13T10:41:27.957Z,100537.09
2022-10-13T10:44:17.164Z,100539.94
2022-10-13T10:47:08.389Z,100527.81
2022-10-13T10:50:01.382Z,100529.00
2022-10-13T10:52:57.003Z,100537.22
2022-10-13T10:55:50.298Z,100529.09
2022-10-13T10:58:44.683Z,100493.97
2022-10-13T11:01:38.498Z,100514.38
2022-10-13T11:04:40.806Z,100491.91
2022-10-13T11:07:59.015Z,100509.97
2022-10-13T11:10:47.477Z,100499.69
2022-10-13T11:13:51.216Z,100510.63
2022-10-13T11:16:41.642Z,100515.44
2022-10-13T11:19:30.881Z,100495.78
2022-10-13T11:22:22.048Z,100488.59
2022-10-13T11:25:39.282Z,100485.09
2022-10-13T11:28:47.087Z,100482.38
2022-10-13T11:31:54.274Z,100480.00
2022-10-13T11:34:59.346Z,100478.84
2022-10-13T11:38:06.943Z,100473.84
2022-10-13T11:41:11.971Z,100460.44
2022-10-13T11:44:04.486Z,100464.47
2022-10-13T11:47:02.618Z,100458.25
2022-10-13T11:50:03.471Z,100451.69
2022-10-13T11:53:05.003Z,100445.56
2022-10-13T11:55:54.685Z,100438.66
2022-10-13T11:58:44.469Z,100432.38
2022-10-13T12:01:32.951Z,100441.22
2022-10-13T12:04:23.337Z,100433.31
2022-10-13T12:07:13.047Z,100438.84
2022-10-13T12:10:01.843Z,100436.84
2022-10-13T12:12:50.926Z,100434.72
2022-10-13T12:15:42.838Z,100424.00
2022-10-13T12:18:34.072Z,100427.56
2022-10-13T12:21:23.609Z,100419.19
2022-10-13T12:24:17.575Z,100403.03
2022-10-13T12:27:11.688Z,100406.44
2022-10-13T12:30:00.200Z,100414.81
2022-10-13T12:32:51.418Z,100415.78
2022-10-13T12:35:39.907Z,100404.56
2022-10-13T12:38:28.404Z,100402.94
2022-10-13T12:41:19.284Z,100291.97
2022-10-13T12:44:09.254Z,100402.22
2022-10-13T12:46:58.991Z,100409.28
2022-10-13T12:49:48.783Z,100405.16
2022-10-13T12:52:37.291Z,100406.53
2022-10-13T12:55:25.735Z,100401.50
2022-10-13T12:58:19.906Z,100393.03
2022-10-13T13:01:10.554Z,100404.25
2022-10-13T13:04:01.301Z,100370.47
2022-10-13T13:06:56.431Z,100394.44
2022-10-13T13:10:01.477Z,100407.41
2022-10-13T13:12:50.986Z,100402.31
2022-10-13T13:15:41.183Z,100399.94
2022-10-13T13:18:35.747Z,100390.03
2022-10-13T13:21:24.194Z,100397.34
2022-10-13T13:24:28.194Z,100387.84
2022-10-13T13:27:26.394Z,100389.03
2022-10-13T13:30:17.042Z,100397.19
2022-10-13T13:33:05.488Z,100394.72
2022-10-13T13:35:54.350Z,100389.44
2022-10-13T13:38:42.867Z,100395.44
2022-10-13T13:41:32.776Z,100389.53
2022-10-13T13:44:21.340Z,100381.16
2022-10-13T13:47:18.495Z,100372.91
2022-10-13T13:50:12.038Z,100341.25
2022-10-13T13:53:00.850Z,100360.31
2022-10-13T13:55:49.339Z,100366.31
2022-10-13T13:58:39.133Z,100332.34
2022-10-13T14:01:27.675Z,100376.69
2022-10-13T14:04:16.230Z,100369.84
2022-10-13T14:07:04.772Z,100343.25
2022-10-13T14:09:54.504Z,100372.22
2022-10-13T14:12:44.931Z,100352.66
2022-10-13T14:15:34.781Z,100361.25
2022-10-13T14:18:23.235Z,100357.72
2022-10-13T14:21:11.741Z,100366.78
2022-10-13T14:24:01.276Z,100358.06
2022-10-13T14:26:49.800Z,100353.72
2022-10-13T14:29:38.430Z,100355.28
2022-10-13T14:32:28.432Z,100349.34
2022-10-13T14:35:17.013Z,100348.66
2022-10-13T14:38:05.481Z,100336.56
2022-10-13T14:40:54.053Z,100345.53
2022-10-13T14:43:42.467Z,100346.69
2022-10-13T14:46:30.932Z,100344.22
2022-10-13T14:49:20.717Z,100340.78
2022-10-13T14:52:09.864Z,100351.88
2022-10-13T14:54:58.341Z,100355.88
2022-10-13T14:57:46.805Z,100357.44
2022-10-13T15:00:35.283Z,100349.53
2022-10-13T15:03:24.124Z,100362.25
2022-10-13T15:06:16.156Z,100356.00
2022-10-13T15:09:04.798Z,100367.91
2022-10-13T15:11:53.331Z,100366.16
2022-10-13T15:14:41.821Z,100371.03
2022-10-13T15:17:31.593Z,100367.84
2022-10-13T15:20:20.239Z,100363.47
2022-10-13T15:23:10.378Z,100348.16
2022-10-13T15:26:00.478Z,100352.38
2022-10-13T15:28:50.797Z,100345.56
2022-10-13T15:31:39.499Z,100355.56
2022-10-13T15:34:27.889Z,100342.50
2022-10-13T15:37:16.339Z,100354.75
2022-10-13T15:40:07.332Z,100343.94
2022-10-13T15:42:55.908Z,100339.56
2022-10-13T15:45:45.100Z,100337.56
2022-10-13T15:48:34.221Z,100344.41
2022-10-13T15:51:26.704Z,100350.88
2022-10-13T15:54:15.190Z,100346.53
2022-10-13T15:57:05.107Z,100351.09
2022-10-13T15:59:53.536Z,100347.22
2022-10-13T16:02:42.429Z,100338.50
2022-10-13T16:05:30.924Z,100343.25
2022-10-13T16:08:19.361Z,100240.44
2022-10-13T16:11:11.222Z,100334.75
2022-10-13T16:14:01.213Z,100327.81
2022-10-13T16:16:49.770Z,100333.13
2022-10-13T16:19:38.233Z,100333.03
2022-10-13T16:22:26.912Z,100340.47
2022-10-13T16:25:15.557Z,100341.66
2022-10-13T16:28:04.061Z,100331.03
2022-10-13T16:30:54.342Z,100322.94
2022-10-13T16:33:43.998Z,100326.44
2022-10-13T16:36:32.782Z,100326.31
2022-10-13T16:39:23.790Z,100331.84
2022-10-13T16:42:12.312Z,100320.66
2022-10-13T16:45:01.283Z,100323.25
2022-10-13T16:47:52.914Z,100317.00
2022-10-13T16:50:41.363Z,100316.06
2022-10-13T16:53:30.486Z,100307.50
2022-10-13T16:56:21.996Z,100325.72
2022-10-13T16:59:11.358Z,100319.81
2022-10-13T17:01:59.851Z,100326.88
2022-10-13T17:04:49.773Z,100306.66
2022-10-13T17:07:38.344Z,100326.97
2022-10-13T17:10:26.931Z,100331.91
2022-10-13T17:13:15.390Z,100335.31
2022-10-13T17:16:04.172Z,100341.19
2022-10-13T17:18:52.680Z,100326.47
2022-10-13T17:21:42.663Z,100335.28
2022-10-13T17:24:31.261Z,100331.88
2022-10-13T17:27:19.992Z,100335.03
2022-10-13T17:30:09.850Z,100329.34
2022-10-13T17:33:02.031Z,100329.56
2022-10-13T17:35:52.891Z,100282.66
2022-10-13T17:38:43.147Z,100339.53
2022-10-13T17:41:31.625Z,100341.84
2022-10-13T17:44:20.808Z,100342.75
2022-10-13T17:47:09.237Z,100331.22
2022-10-13T17:49:57.706Z,100342.63
2022-10-13T17:52:46.139Z,100345.34
2022-10-13T17:55:35.947Z,100350.63
2022-10-13T17:58:24.352Z,100348.03
2022-10-13T18:01:15.882Z,100332.81
2022-10-13T18:04:06.265Z,100341.91
2022-10-13T18:06:55.013Z,100347.53
2022-10-13T18:09:43.480Z,100357.97
2022-10-13T18:12:33.583Z,100351.94
2022-10-13T18:15:22.099Z,100358.41
2022-10-13T18:18:11.359Z,100347.22
2022-10-13T18:21:02.172Z,100349.34
2022-10-13T18:23:50.881Z,100346.03
2022-10-13T18:26:39.573Z,100341.53
2022-10-13T18:29:29.426Z,100341.69
2022-10-13T18:32:17.938Z,100346.50
2022-10-13T18:35:07.362Z,100338.28
2022-10-13T18:37:56.012Z,100342.22
2022-10-13T18:40:44.671Z,100345.16
2022-10-13T18:43:33.139Z,100341.41
2022-10-13T18:46:23.400Z,100343.50
2022-10-13T18:49:13.664Z,100325.38
2022-10-13T18:52:02.514Z,100343.59
2022-10-13T18:54:52.650Z,100350.25
2022-10-13T18:57:41.113Z,100356.09
2022-10-13T19:00:29.658Z,100359.03
2022-10-13T19:03:19.510Z,100355.53
2022-10-13T19:06:10.172Z,100326.25
2022-10-13T19:09:00.601Z,100335.56
2022-10-13T19:11:49.204Z,100334.97
2022-10-13T19:14:37.758Z,100360.09
2022-10-13T19:17:26.243Z,100357.38
2022-10-13T19:20:16.116Z,100356.31
2022-10-13T19:23:04.641Z,100355.13
2022-10-13T19:25:53.127Z,100358.06
2022-10-13T19:28:41.709Z,100347.44
2022-10-13T19:31:31.937Z,100343.50
2022-10-13T19:34:20.709Z,100344.13
2022-10-13T19:37:10.532Z,100342.03
2022-10-13T19:39:59.025Z,100337.44
2022-10-13T19:42:47.524Z,100335.19
2022-10-13T19:45:36.023Z,100340.22
2022-10-13T19:48:25.044Z,100293.19
2022-10-13T19:51:13.683Z,100333.69
2022-10-13T19:54:03.804Z,100349.56
2022-10-13T19:56:52.339Z,100345.22
2022-10-13T19:59:45.300Z,100356.41
2022-10-13T20:02:35.987Z,100352.00
2022-10-13T20:05:25.548Z,100356.78
2022-10-13T20:08:14.179Z,100341.13
2022-10-13T20:11:08.153Z,100332.50
2022-10-13T20:13:56.635Z,100363.47
2022-10-13T20:16:45.747Z,100340.50
2022-10-13T20:19:34.187Z,100360.16
2022-10-13T20:22:22.772Z,100347.13
2022-10-13T20:25:11.217Z,100355.97
2022-10-13T20:28:01.001Z,100352.81
2022-10-13T20:30:49.425Z,100363.19
2022-10-13T20:33:38.126Z,100358.22
2022-10-13T20:36:27.756Z,100350.56
2022-10-13T20:39:16.223Z,100350.56
2022-10-13T20:42:04.917Z,100353.84
2022-10-13T20:44:54.857Z,100356.41
2022-10-13T20:47:43.331Z,100353.94
2022-10-13T20:50:31.784Z,100349.00
2022-10-13T20:53:20.264Z,100358.16
2022-10-13T20:56:10.214Z,100348.03
2022-10-13T20:59:03.429Z,100354.91
2022-10-13T21:01:53.256Z,100351.84
2022-10-13T21:04:41.794Z,100356.84
2022-10-13T21:07:30.269Z,100353.53
2022-10-13T21:10:18.743Z,100352.19
2022-10-13T21:13:07.304Z,100351.63
2022-10-13T21:15:55.734Z,100355.00
2022-10-13T21:18:47.992Z,100353.97
2022-10-13T21:21:36.906Z,100359.81
2022-10-13T21:24:25.360Z,100359.66
2022-10-13T21:27:13.805Z,100353.94
2022-10-13T21:30:02.224Z,100359.56
2022-10-13T21:32:50.707Z,100365.53
2022-10-13T21:35:40.531Z,100365.75
2022-10-13T21:38:28.971Z,100355.84
2022-10-13T21:41:17.524Z,100371.81
2022-10-13T21:44:06.004Z,100365.44
2022-10-13T21:46:54.454Z,100369.41
2022-10-13T21:49:42.888Z,100364.69
2022-10-13T21:52:35.581Z,100371.31
2022-10-13T21:55:24.016Z,100372.56
2022-10-13T21:58:12.441Z,100372.56
2022-10-13T22:01:01.029Z,100323.84
2022-10-13T22:03:49.978Z,100373.22
2022-10-13T22:06:38.519Z,100365.19
2022-10-13T22:09:28.552Z,100371.16
2022-10-13T22:12:16.989Z,100361.88
2022-10-13T22:15:06.289Z,100371.16
2022-10-13T22:17:54.711Z,100365.84
2022-10-13T22:20:43.185Z,100377.03
2022-10-13T22:23:31.716Z,100371.44
2022-10-13T22:26:21.515Z,100379.94
2022-10-13T22:29:11.764Z,100377.06
2022-10-13T22:32:00.325Z,100374.97
2022-10-13T22:34:48.756Z,100367.31
2022-10-13T22:37:37.220Z,100379.75
2022-10-13T22:40:25.643Z,100373.94
2022-10-13T22:43:15.432Z,100366.09
2022-10-13T22:46:04.384Z,100370.66
2022-10-13T22:48:53.090Z,100370.03
2022-10-13T22:51:41.591Z,100361.53
2022-10-13T22:54:30.198Z,100362.81
2022-10-13T22:57:19.197Z,100365.06
2022-10-13T23:00:10.991Z,100359.47
2022-10-13T23:02:59.423Z,100207.44
2022-10-13T23:05:48.848Z,100354.66
2022-10-13T23:08:37.296Z,100350.31
2022-10-13T23:11:25.771Z,100354.06
2022-10-13T23:14:14.240Z,100350.31
2022-10-13T23:17:04.058Z,100332.53
2022-10-13T23:19:52.467Z,100336.44
2022-10-13T23:22:40.951Z,100338.75
2022-10-13T23:25:29.367Z,100339.34
2022-10-13T23:28:17.917Z,100340.19
2022-10-13T23:31:08.400Z,100310.03
2022-10-13T23:33:58.591Z,100310.44
2022-10-13T23:36:47.216Z,100328.00
2022-10-13T23:39:35.759Z,100346.34
2022-10-13T23:42:24.192Z,100326.69
2022-10-13T23:45:12.707Z,100310.16
2022-10-13T23:48:01.146Z,100327.50
2022-10-13T23:50:50.939Z,100333.44
2022-10-13T23:53:39.887Z,100329.09
2022-10-13T23:56:28.461Z,100325.84
2022-10-13T23:59:16.875Z,100326.69
